Time;durP1;ratioP1;P1;durP2;ratioP2;P2;SDS_P1;SDS_P2;PMS_P1;PMS_P2;Temp;Humidity;BMP_temperature;BMP_pressure;BME280_temperature;BME280_humidity;BME280_pressure;Samples;Min_cycle;Max_cycle;Signal;HPM_P1;HPM_P2
2023/05/15 00:01:23;;;;;;;6.38;3.90;;;13.40;85.50;;;;;;6326947;22;20021;-92
2023/05/15 00:03:50;;;;;;;9.00;4.82;;;13.40;85.50;;;;;;6352918;22;20015;-93
2023/05/15 00:06:19;;;;;;;9.70;4.13;;;13.30;85.80;;;;;;6294069;22;20018;-93
2023/05/15 00:08:46;;;;;;;7.38;4.07;;;13.30;85.90;;;;;;6339426;22;20025;-93
2023/05/15 00:11:14;;;;;;;6.68;4.05;;;13.20;86.60;;;;;;6293218;22;20018;-93
2023/05/15 00:13:41;;;;;;;6.78;4.60;;;13.20;86.00;;;;;;6287479;22;20018;-92
2023/05/15 00:16:08;;;;;;;5.18;3.80;;;13.20;86.00;;;;;;6263039;22;20018;-93
2023/05/15 00:18:36;;;;;;;6.32;3.60;;;13.20;86.00;;;;;;6288907;22;20015;-92
2023/05/15 00:21:03;;;;;;;6.72;3.65;;;13.20;86.60;;;;;;6287656;22;20021;-92
2023/05/15 00:23:31;;;;;;;6.88;4.78;;;13.20;86.00;;;;;;6288700;22;20029;-93
2023/05/15 00:26:01;;;;;;;6.18;3.75;;;13.10;86.00;;;;;;6339837;22;20054;-94
2023/05/15 00:28:28;;;;;;;7.20;4.90;;;13.10;86.00;;;;;;6288192;22;20057;-92
2023/05/15 00:30:55;;;;;;;5.53;3.97;;;13.00;86.10;;;;;;6313803;22;20068;-93
2023/05/15 00:33:23;;;;;;;5.95;3.67;;;13.00;86.10;;;;;;6287444;22;20035;-93
2023/05/15 00:35:50;;;;;;;4.90;3.55;;;13.00;86.10;;;;;;6287926;22;20019;-92
2023/05/15 00:38:17;;;;;;;5.88;3.70;;;13.00;86.00;;;;;;6287559;22;20076;-93
2023/05/15 00:40:45;;;;;;;5.93;4.00;;;12.90;86.00;;;;;;6312797;22;20022;-92
2023/05/15 00:43:14;;;;;;;8.23;4.53;;;12.90;86.10;;;;;;6339128;22;20015;-93
2023/05/15 00:45:42;;;;;;;8.98;4.82;;;12.90;86.10;;;;;;6313914;22;20064;-93
2023/05/15 00:48:14;;;;;;;6.05;4.00;;;12.80;86.00;;;;;;6338858;22;20023;-93
2023/05/15 00:50:42;;;;;;;7.25;4.40;;;12.80;86.00;;;;;;6339622;22;20022;-93
2023/05/15 00:53:10;;;;;;;8.52;5.25;;;12.70;86.50;;;;;;6313165;22;20015;-93
2023/05/15 00:55:41;;;;;;;8.02;3.50;;;12.70;85.90;;;;;;6312965;22;20293;-93
2023/05/15 00:58:09;;;;;;;5.25;3.72;;;12.70;85.80;;;;;;6339107;22;20022;-93
2023/05/15 01:00:38;;;;;;;6.63;3.20;;;12.70;85.80;;;;;;6264072;22;20015;-93
2023/05/15 01:03:06;;;;;;;7.13;4.10;;;12.70;85.70;;;;;;6314800;22;20011;-93
2023/05/15 01:05:34;;;;;;;6.35;4.15;;;12.70;85.80;;;;;;6315230;22;20094;-92
2023/05/15 01:08:31;;;;;;;5.43;3.35;;;12.60;86.00;;;;;;6289565;22;20046;-93
2023/05/15 01:10:59;;;;;;;5.30;3.78;;;12.60;85.60;;;;;;6315321;22;20023;-93
2023/05/15 01:13:26;;;;;;;6.88;4.65;;;12.50;85.60;;;;;;6290653;22;20030;-93
2023/05/15 01:15:55;;;;;;;8.15;4.50;;;12.50;85.50;;;;;;6341067;22;20467;-93
2023/05/15 01:18:22;;;;;;;7.05;4.72;;;12.50;85.50;;;;;;6315396;22;20019;-93
2023/05/15 01:21:15;;;;;;;7.03;4.40;;;12.50;85.60;;;;;;6289503;22;20025;-92
2023/05/15 01:24:06;;;;;;;9.13;6.25;;;12.50;85.70;;;;;;6315703;22;20481;-93
2023/05/15 01:27:01;;;;;;;9.40;6.78;;;12.40;86.30;;;;;;6315406;22;20029;-93
2023/05/15 01:29:40;;;;;;;8.88;6.20;;;12.30;86.30;;;;;;6341049;22;20019;-92
2023/05/15 01:32:18;;;;;;;8.52;5.45;;;12.30;86.50;;;;;;6345929;22;20021;-93
2023/05/15 01:35:13;;;;;;;9.93;6.40;;;12.20;86.50;;;;;;6350556;22;20022;-92
2023/05/15 01:37:48;;;;;;;7.32;5.00;;;12.20;86.80;;;;;;6362675;22;20656;-92
2023/05/15 01:40:20;;;;;;;9.13;6.30;;;12.20;86.70;;;;;;6337752;22;20036;-93
2023/05/15 01:42:55;;;;;;;8.63;5.53;;;12.20;87.10;;;;;;6337359;22;20003;-93
2023/05/15 01:45:23;;;;;;;10.13;5.10;;;12.20;87.00;;;;;;6337134;22;20019;-92
2023/05/15 01:47:53;;;;;;;10.43;7.03;;;12.10;87.20;;;;;;6297022;22;20019;-92
2023/05/15 01:50:21;;;;;;;10.35;7.50;;;12.10;87.90;;;;;;6325737;22;20105;-92
2023/05/15 01:52:55;;;;;;;10.20;6.18;;;12.10;88.10;;;;;;6304576;22;20018;-92
2023/05/15 01:55:28;;;;;;;8.27;5.22;;;12.10;87.90;;;;;;6343893;22;20068;-86
2023/05/15 01:58:01;;;;;;;9.70;5.47;;;12.10;87.80;;;;;;6312291;22;20021;-86
2023/05/15 02:00:29;;;;;;;7.63;5.10;;;12.10;87.90;;;;;;6313521;22;20398;-87
2023/05/15 02:02:57;;;;;;;7.60;5.25;;;12.10;87.90;;;;;;6312665;22;20014;-87
2023/05/15 02:05:26;;;;;;;8.75;5.63;;;12.10;88.10;;;;;;6312601;22;20040;-86
2023/05/15 02:07:54;;;;;;;9.68;5.65;;;12.10;88.20;;;;;;6312596;22;20023;-86
2023/05/15 02:10:22;;;;;;;12.57;6.75;;;12.10;88.30;;;;;;6337346;22;20022;-86
2023/05/15 02:12:53;;;;;;;11.52;5.70;;;12.10;89.00;;;;;;6313195;22;20023;-86
2023/05/15 02:15:22;;;;;;;9.82;5.93;;;12.10;88.80;;;;;;6287267;22;20018;-86
2023/05/15 02:17:52;;;;;;;6.50;4.55;;;12.10;88.80;;;;;;6312234;22;20111;-86
2023/05/15 02:20:21;;;;;;;8.98;6.38;;;12.10;88.80;;;;;;6288132;22;20022;-85
2023/05/15 02:22:48;;;;;;;9.02;6.07;;;12.00;89.40;;;;;;6338856;22;20019;-85
2023/05/15 02:25:15;;;;;;;11.32;5.95;;;12.00;89.30;;;;;;6339434;22;20026;-84
2023/05/15 02:27:54;;;;;;;9.73;6.10;;;12.00;89.40;;;;;;6312677;22;20015;-87
2023/05/15 02:30:30;;;;;;;10.88;5.78;;;12.00;89.60;;;;;;6337973;22;20027;-86
2023/05/15 02:33:10;;;;;;;7.70;4.85;;;12.00;89.60;;;;;;6338209;22;20440;-86
2023/05/15 02:35:54;;;;;;;7.30;4.45;;;12.00;89.50;;;;;;6337649;22;20093;-87
2023/05/15 02:38:45;;;;;;;8.38;5.20;;;12.00;89.40;;;;;;6337574;22;20021;-87
2023/05/15 02:41:15;;;;;;;7.47;4.85;;;12.00;89.50;;;;;;6286279;22;20014;-86
2023/05/15 02:43:43;;;;;;;6.80;4.55;;;11.90;89.60;;;;;;6337650;22;20018;-85
2023/05/15 02:46:13;;;;;;;9.38;5.95;;;11.90;89.60;;;;;;6311513;22;20015;-86
2023/05/15 02:48:42;;;;;;;7.95;5.18;;;11.90;89.80;;;;;;6312283;22;20015;-86
2023/05/15 02:51:13;;;;;;;7.47;4.28;;;11.90;89.80;;;;;;6312464;22;20019;-85
2023/05/15 02:53:43;;;;;;;6.07;3.78;;;11.90;89.80;;;;;;6337454;22;20022;-86
2023/05/15 02:56:14;;;;;;;6.30;3.88;;;11.90;89.70;;;;;;6337353;22;20068;-86
2023/05/15 02:58:41;;;;;;;5.07;3.40;;;11.90;89.70;;;;;;6311909;22;20097;-87
2023/05/15 03:01:08;;;;;;;5.18;3.55;;;11.90;89.70;;;;;;6337783;22;20045;-87
2023/05/15 03:03:35;;;;;;;6.13;3.88;;;11.90;89.80;;;;;;6286433;22;20015;-86
2023/05/15 03:06:03;;;;;;;8.98;4.70;;;11.80;89.90;;;;;;6286372;22;20424;-86
2023/05/15 03:08:30;;;;;;;7.30;4.03;;;11.80;90.00;;;;;;6337336;22;20045;-86
2023/05/15 03:10:57;;;;;;;7.95;4.72;;;11.80;90.10;;;;;;6311743;22;20019;-86
2023/05/15 03:13:27;;;;;;;8.70;5.88;;;11.80;90.10;;;;;;6311393;22;20061;-86
2023/05/15 03:15:54;;;;;;;11.07;6.78;;;11.80;90.20;;;;;;6337238;22;20081;-86
2023/05/15 03:18:22;;;;;;;9.65;6.45;;;11.80;90.30;;;;;;6286065;22;20021;-86
2023/05/15 03:20:51;;;;;;;9.60;6.20;;;11.70;90.30;;;;;;6337616;22;20015;-86
2023/05/15 03:23:18;;;;;;;12.20;7.93;;;11.70;90.30;;;;;;6337615;22;20078;-86
2023/05/15 03:25:46;;;;;;;11.05;7.13;;;11.70;90.60;;;;;;6337432;22;20073;-85
2023/05/15 03:28:13;;;;;;;11.10;7.05;;;11.60;90.60;;;;;;6311502;22;20025;-86
2023/05/15 03:30:43;;;;;;;9.75;6.72;;;11.60;90.70;;;;;;6286970;22;20019;-87
2023/05/15 03:33:13;;;;;;;10.25;6.78;;;11.60;91.00;;;;;;6262495;22;20071;-86
2023/05/15 03:35:41;;;;;;;10.95;7.65;;;11.60;90.70;;;;;;6311801;22;20019;-86
2023/05/15 03:38:08;;;;;;;11.52;7.38;;;11.60;90.90;;;;;;6286028;22;20463;-87
2023/05/15 03:40:38;;;;;;;14.35;8.82;;;11.60;90.90;;;;;;6311529;22;20019;-86
2023/05/15 03:43:05;;;;;;;14.85;8.60;;;11.60;91.00;;;;;;6337953;22;20015;-86
2023/05/15 03:45:36;;;;;;;10.80;7.22;;;11.60;91.00;;;;;;6311343;22;20344;-86
2023/05/15 03:48:04;;;;;;;13.10;7.97;;;11.70;90.90;;;;;;6286502;22;20022;-86
2023/05/15 03:50:31;;;;;;;10.02;6.57;;;11.70;91.20;;;;;;6286377;22;20072;-86
2023/05/15 03:52:58;;;;;;;10.98;6.25;;;11.80;90.80;;;;;;6285621;22;20015;-85
2023/05/15 03:55:25;;;;;;;12.40;7.32;;;11.80;90.80;;;;;;6311670;22;20444;-87
2023/05/15 03:57:53;;;;;;;12.68;7.82;;;11.80;90.90;;;;;;6311162;22;20021;-88
2023/05/15 04:00:20;;;;;;;13.75;7.57;;;11.80;91.00;;;;;;6285601;22;20025;-87
2023/05/15 04:02:48;;;;;;;10.40;6.88;;;11.80;91.00;;;;;;6285814;22;20023;-87
2023/05/15 04:05:16;;;;;;;11.13;6.82;;;11.80;91.00;;;;;;6311565;22;20054;-86
2023/05/15 04:07:45;;;;;;;12.00;6.95;;;11.80;91.00;;;;;;6311821;22;20027;-87
2023/05/15 04:10:14;;;;;;;13.70;8.38;;;11.80;91.00;;;;;;6312050;22;20015;-87
2023/05/15 04:12:42;;;;;;;12.35;6.82;;;11.80;91.10;;;;;;6311010;22;20019;-86
2023/05/15 04:15:22;;;;;;;17.05;9.80;;;11.80;91.10;;;;;;6311604;22;20023;-86
2023/05/15 04:17:51;;;;;;;15.77;8.77;;;11.90;91.30;;;;;;6311578;22;20026;-85
2023/05/15 04:20:21;;;;;;;11.63;7.65;;;11.80;91.40;;;;;;6337107;22;20021;-86
2023/05/15 04:22:49;;;;;;;10.68;6.50;;;11.90;91.40;;;;;;6310612;22;20498;-87
2023/05/15 04:25:16;;;;;;;12.13;6.45;;;11.90;91.20;;;;;;6311432;22;20021;-87
2023/05/15 04:27:44;;;;;;;8.95;5.03;;;12.10;91.20;;;;;;6285885;22;20030;-87
2023/05/15 04:30:12;;;;;;;8.32;5.05;;;12.00;91.00;;;;;;6285674;22;20049;-87
2023/05/15 04:32:42;;;;;;;8.57;5.50;;;12.10;91.10;;;;;;6311147;22;20060;-87
2023/05/15 04:35:12;;;;;;;12.10;6.70;;;12.20;91.10;;;;;;6312133;22;20101;-87
2023/05/15 04:37:40;;;;;;;12.00;5.90;;;12.10;91.00;;;;;;6313473;22;20019;-86
2023/05/15 04:40:08;;;;;;;9.75;5.75;;;12.20;91.30;;;;;;6313918;22;20014;-86
2023/05/15 04:42:36;;;;;;;9.80;5.72;;;12.20;91.00;;;;;;6288151;22;20019;-86
2023/05/15 04:45:06;;;;;;;10.57;5.70;;;12.30;91.00;;;;;;6313553;22;20329;-85
2023/05/15 04:47:34;;;;;;;10.35;5.63;;;12.30;91.00;;;;;;6312995;22;20023;-85
2023/05/15 04:50:02;;;;;;;8.55;4.80;;;12.40;90.90;;;;;;6339116;22;20022;-85
2023/05/15 04:52:29;;;;;;;10.05;5.60;;;12.50;90.80;;;;;;6312940;22;20068;-86
2023/05/15 04:54:56;;;;;;;8.35;4.85;;;12.60;90.80;;;;;;6287442;22;20044;-86
2023/05/15 04:57:24;;;;;;;10.20;5.22;;;12.60;90.70;;;;;;6312931;22;20341;-87
2023/05/15 04:59:52;;;;;;;9.70;5.40;;;12.60;90.70;;;;;;6312992;22;20022;-87
2023/05/15 05:02:21;;;;;;;9.15;5.65;;;12.70;90.70;;;;;;6287822;22;20011;-87
2023/05/15 05:04:49;;;;;;;13.32;8.00;;;12.70;90.80;;;;;;6338829;22;20022;-86
2023/05/15 05:07:16;;;;;;;13.18;8.20;;;12.60;91.10;;;;;;6312603;22;20085;-87
2023/05/15 05:09:43;;;;;;;17.10;10.30;;;12.60;90.90;;;;;;6287566;22;20354;-86
2023/05/15 05:12:10;;;;;;;19.35;10.90;;;12.50;91.10;;;;;;6337943;22;20027;-88
2023/05/15 05:14:40;;;;;;;19.80;10.45;;;12.50;91.20;;;;;;6312961;22;20018;-86
2023/05/15 05:17:11;;;;;;;16.08;9.02;;;12.50;91.20;;;;;;6338750;22;20101;-87
2023/05/15 05:19:38;;;;;;;15.85;9.85;;;12.50;91.10;;;;;;6287541;22;20068;-87
2023/05/15 05:22:06;;;;;;;12.93;7.85;;;12.50;91.00;;;;;;6312289;22;20019;-87
2023/05/15 05:24:36;;;;;;;13.68;8.98;;;12.60;91.00;;;;;;6312993;22;20518;-87
2023/05/15 05:27:04;;;;;;;13.75;7.90;;;12.60;91.00;;;;;;6338541;22;20035;-86
2023/05/15 05:29:32;;;;;;;14.23;8.05;;;12.60;90.90;;;;;;6312470;22;20054;-86
2023/05/15 05:32:00;;;;;;;14.10;8.45;;;12.70;90.80;;;;;;6338187;22;20026;-86
2023/05/15 05:34:27;;;;;;;16.63;9.25;;;12.70;90.80;;;;;;6287207;22;20021;-87
2023/05/15 05:36:54;;;;;;;16.65;9.93;;;12.70;90.70;;;;;;6337747;22;20038;-87
2023/05/15 05:39:22;;;;;;;16.65;9.48;;;12.70;90.80;;;;;;6312521;22;20047;-86
2023/05/15 05:41:49;;;;;;;12.40;8.05;;;12.70;90.80;;;;;;6286974;22;20022;-86
2023/05/15 05:44:16;;;;;;;16.00;9.65;;;12.60;90.80;;;;;;6312582;22;20019;-86
2023/05/15 05:46:50;;;;;;;15.10;8.88;;;12.60;90.80;;;;;;6312379;22;20015;-86
2023/05/15 05:49:17;;;;;;;14.73;8.68;;;12.60;90.80;;;;;;6338041;22;20037;-86
2023/05/15 05:51:45;;;;;;;13.18;8.75;;;12.50;90.80;;;;;;6338151;22;20019;-86
2023/05/15 05:54:17;;;;;;;11.48;7.72;;;12.60;90.80;;;;;;6337685;22;20023;-86
2023/05/15 05:56:47;;;;;;;12.65;7.53;;;12.60;90.70;;;;;;6287858;22;20019;-87
2023/05/15 05:59:14;;;;;;;12.52;7.03;;;12.70;90.60;;;;;;6312152;22;20014;-86
2023/05/15 06:01:44;;;;;;;13.38;7.88;;;12.80;90.50;;;;;;6312006;22;20021;-87
2023/05/15 06:04:11;;;;;;;15.75;8.10;;;12.80;90.40;;;;;;6312043;22;20383;-86
2023/05/15 06:06:40;;;;;;;12.40;7.63;;;12.90;90.30;;;;;;6312059;22;20015;-87
2023/05/15 06:09:07;;;;;;;13.65;7.75;;;12.90;90.30;;;;;;6286970;22;20046;-87
2023/05/15 06:11:34;;;;;;;13.60;7.72;;;13.00;90.20;;;;;;6312312;22;20011;-87
2023/05/15 06:14:01;;;;;;;11.80;7.15;;;13.10;90.10;;;;;;6311784;22;20402;-87
2023/05/15 06:16:29;;;;;;;12.05;8.40;;;13.10;90.10;;;;;;6312357;22;20022;-87
2023/05/15 06:18:56;;;;;;;13.45;7.90;;;13.10;90.00;;;;;;6337906;22;20069;-86
2023/05/15 06:21:24;;;;;;;11.48;7.30;;;13.10;89.90;;;;;;6287299;22;20022;-86
2023/05/15 06:23:55;;;;;;;10.98;8.07;;;13.20;89.80;;;;;;6289037;22;20022;-87
2023/05/15 06:26:22;;;;;;;10.55;7.43;;;13.30;89.50;;;;;;6312237;22;20106;-86
2023/05/15 06:28:50;;;;;;;8.85;6.45;;;13.40;89.20;;;;;;6312475;22;20029;-87
2023/05/15 06:31:20;;;;;;;10.38;6.60;;;13.50;88.90;;;;;;6312713;22;20026;-86
2023/05/15 06:33:47;;;;;;;9.20;5.75;;;13.60;88.60;;;;;;6312658;22;20420;-87
2023/05/15 06:36:15;;;;;;;8.77;5.45;;;13.70;88.50;;;;;;6261693;22;20022;-85
2023/05/15 06:38:43;;;;;;;13.35;7.15;;;13.80;88.20;;;;;;6311852;22;20018;-85
2023/05/15 06:41:13;;;;;;;9.52;6.07;;;13.90;87.60;;;;;;6287259;22;20064;-87
2023/05/15 06:43:40;;;;;;;9.88;6.07;;;14.00;87.60;;;;;;6337911;22;20068;-85
2023/05/15 06:46:07;;;;;;;10.93;5.10;;;14.10;87.40;;;;;;6312220;22;20375;-86
2023/05/15 06:48:36;;;;;;;10.80;6.38;;;14.20;87.20;;;;;;6286784;22;20022;-86
2023/05/15 06:51:04;;;;;;;13.40;7.45;;;14.30;86.80;;;;;;6287088;22;20018;-85
2023/05/15 06:53:31;;;;;;;12.50;8.73;;;14.40;86.70;;;;;;6311718;22;20019;-83
2023/05/15 06:56:02;;;;;;;12.75;8.63;;;14.40;86.50;;;;;;6286274;22;20027;-87
2023/05/15 06:58:39;;;;;;;13.13;7.82;;;14.30;86.40;;;;;;6315016;22;20094;-85
2023/05/15 07:01:14;;;;;;;11.10;7.13;;;14.30;86.50;;;;;;6313444;22;20018;-87
2023/05/15 07:03:42;;;;;;;11.50;7.38;;;14.20;86.50;;;;;;6286493;22;20032;-86
2023/05/15 07:06:15;;;;;;;11.25;7.03;;;14.10;86.70;;;;;;6311945;22;20011;-86
2023/05/15 07:08:42;;;;;;;12.20;7.60;;;14.10;86.80;;;;;;6336894;22;20033;-86
2023/05/15 07:11:09;;;;;;;17.38;9.70;;;13.90;86.80;;;;;;6286587;22;20029;-91
2023/05/15 07:13:36;;;;;;;11.55;7.97;;;13.80;86.80;;;;;;6288579;22;20014;-92
2023/05/15 07:16:04;;;;;;;12.02;7.63;;;13.80;87.10;;;;;;6288620;22;20026;-92
2023/05/15 07:18:31;;;;;;;10.93;6.57;;;13.80;87.10;;;;;;6314003;22;20044;-91
2023/05/15 07:20:59;;;;;;;9.35;6.50;;;13.90;86.90;;;;;;6314149;22;20069;-91
2023/05/15 07:23:26;;;;;;;10.15;6.30;;;14.10;86.50;;;;;;6288829;22;20019;-91
2023/05/15 07:25:56;;;;;;;11.98;7.10;;;14.20;86.00;;;;;;6288724;22;20015;-91
2023/05/15 07:28:23;;;;;;;10.07;6.22;;;14.40;85.30;;;;;;6287786;22;20042;-95
2023/05/15 07:30:56;;;;;;;10.52;6.47;;;14.60;85.00;;;;;;6313714;22;20023;-90
2023/05/15 07:33:23;;;;;;;8.65;5.50;;;14.80;84.40;;;;;;6287721;22;20040;-90
2023/05/15 07:35:50;;;;;;;7.78;4.88;;;15.00;84.10;;;;;;6288257;22;20018;-92
2023/05/15 07:38:18;;;;;;;9.25;5.97;;;15.20;83.70;;;;;;6288208;22;20026;-91
2023/05/15 07:40:45;;;;;;;8.23;6.03;;;15.30;82.90;;;;;;6313724;22;20072;-90
2023/05/15 07:43:13;;;;;;;7.05;4.85;;;15.30;83.30;;;;;;6339927;22;20019;-91
2023/05/15 07:45:40;;;;;;;6.80;4.53;;;15.40;82.50;;;;;;6314345;22;20019;-90
2023/05/15 07:48:17;;;;;;;8.32;5.03;;;15.60;82.20;;;;;;6341460;22;20050;-91
2023/05/15 07:50:49;;;;;;;6.55;4.75;;;15.80;81.50;;;;;;6343471;22;20022;-89
2023/05/15 07:53:17;;;;;;;9.45;4.80;;;15.90;81.20;;;;;;6342058;22;20019;-90
2023/05/15 07:55:44;;;;;;;7.63;5.18;;;16.00;80.90;;;;;;6319173;22;20029;-91
2023/05/15 07:58:12;;;;;;;6.80;4.60;;;16.00;80.70;;;;;;6319058;22;20372;-91
2023/05/15 08:00:39;;;;;;;7.20;4.00;;;16.00;80.80;;;;;;6288042;22;20075;-90
2023/05/15 08:03:41;;;;;;;6.32;4.50;;;15.90;81.30;;;;;;6287792;22;20477;-90
2023/05/15 08:06:11;;;;;;;7.35;4.97;;;15.90;80.40;;;;;;6287045;22;20014;-89
2023/05/15 08:08:38;;;;;;;9.15;5.18;;;15.80;80.70;;;;;;6288374;22;20018;-89
2023/05/15 08:11:05;;;;;;;8.05;5.18;;;15.90;80.50;;;;;;6339126;22;20030;-90
2023/05/15 08:13:33;;;;;;;7.40;5.28;;;16.00;80.40;;;;;;6312332;22;20068;-87
2023/05/15 08:16:02;;;;;;;7.70;5.40;;;16.20;80.20;;;;;;6338570;22;20026;-90
2023/05/15 08:18:29;;;;;;;10.32;6.60;;;16.30;79.60;;;;;;6312473;22;20041;-90
2023/05/15 08:20:56;;;;;;;9.02;6.22;;;16.40;79.20;;;;;;6313459;22;20101;-93
2023/05/15 08:23:25;;;;;;;7.88;5.40;;;16.50;79.00;;;;;;6312872;22;20097;-90
2023/05/15 08:25:52;;;;;;;9.70;7.28;;;16.60;78.70;;;;;;6313211;22;20484;-91
2023/05/15 08:28:19;;;;;;;9.43;5.97;;;16.60;78.00;;;;;;6313487;22;20014;-89
2023/05/15 08:31:07;;;;;;;7.80;4.90;;;16.70;78.20;;;;;;6263500;22;20440;-96
2023/05/15 08:38:12;;;;;;;9.40;6.13;;;17.10;77.20;;;;;;6190520;22;20019;-93
2023/05/15 08:40:42;;;;;;;8.82;5.50;;;17.20;76.70;;;;;;6339346;22;20022;-90
2023/05/15 08:57:00;;;;;;;9.68;5.85;;;17.70;73.70;;;;;;6145290;23;20037;-95
2023/05/15 09:01:01;;;;;;;;;;;;;;;;;;;;;
2023/05/15 09:03:54;;;;;;;12.40;8.10;;;17.90;72.80;;;;;;6265690;22;20012;-86
2023/05/15 09:06:24;;;;;;;11.70;7.65;;;17.80;72.60;;;;;;6254727;22;20090;-88
2023/05/15 09:08:57;;;;;;;11.30;7.05;;;17.90;72.60;;;;;;6254860;22;20026;-93
2023/05/15 09:12:03;;;;;;;9.90;7.07;;;18.00;72.50;;;;;;6253238;22;20020;-91
2023/05/15 09:15:13;;;;;;;10.10;7.65;;;18.10;72.20;;;;;;6255669;22;20015;-93
2023/05/15 09:17:46;;;;;;;15.32;8.57;;;18.10;72.10;;;;;;6228009;22;20024;-91
2023/05/15 09:20:46;;;;;;;9.50;7.60;;;18.20;72.40;;;;;;6255107;22;20519;-91
2023/05/15 09:23:25;;;;;;;14.43;7.93;;;18.30;72.30;;;;;;6271499;22;20016;-90
2023/05/15 09:25:58;;;;;;;13.05;9.25;;;18.40;72.10;;;;;;6252934;22;20020;-92
2023/05/15 09:31:30;;;;;;;10.02;7.20;;;18.40;71.70;;;;;;6311941;22;20077;-91
2023/05/15 09:35:52;;;;;;;8.35;6.50;;;18.50;71.40;;;;;;6175997;23;20491;-89
2023/05/15 09:38:37;;;;;;;;;;;;;;;;;;;;;
2023/05/15 09:41:50;;;;;;;5.75;4.45;;;19.00;69.80;;;;;;6192149;23;20021;-96
2023/05/15 09:45:03;;;;;;;;;;;;;;;;;;;;;
2023/05/15 09:52:47;;;;;;;5.65;4.07;;;19.80;67.50;;;;;;6106859;23;20115;-91
2023/05/15 09:55:35;;;;;;;6.10;4.80;;;20.00;67.90;;;;;;6190050;23;20450;-90
2023/05/15 09:58:35;;;;;;;8.27;6.07;;;20.10;67.00;;;;;;6190144;23;20101;-89
2023/05/15 10:01:20;;;;;;;7.90;6.25;;;19.90;66.00;;;;;;6184091;23;20025;-92
2023/05/15 10:04:08;;;;;;;8.80;6.22;;;20.00;66.20;;;;;;6287784;22;20086;-91
2023/05/15 10:06:52;;;;;;;7.47;5.80;;;20.00;65.90;;;;;;6283709;22;20439;-92
2023/05/15 10:09:47;;;;;;;8.85;7.05;;;20.00;65.20;;;;;;6282068;22;20027;-93
2023/05/15 10:12:17;;;;;;;8.88;7.07;;;19.80;65.30;;;;;;6257087;22;20453;-88
2023/05/15 10:14:47;;;;;;;9.38;7.10;;;19.70;64.90;;;;;;6282938;22;20106;-93
2023/05/15 10:17:16;;;;;;;9.60;6.38;;;19.50;63.90;;;;;;6289847;22;20019;-95
2023/05/15 10:24:13;;;;;;;6.97;4.28;;;19.40;64.50;;;;;;6310858;22;20097;-93
2023/05/15 10:26:43;;;;;;;8.07;5.78;;;19.50;64.60;;;;;;6284000;22;20034;-96
2023/05/15 10:29:30;;;;;;;;;;;;;;;;;;;;;
2023/05/15 10:32:04;;;;;;;11.13;6.30;;;19.60;63.60;;;;;;6313673;22;20023;-96
2023/05/15 10:34:33;;;;;;;6.30;5.13;;;19.70;63.00;;;;;;6294022;22;20019;-93
2023/05/15 10:37:05;;;;;;;9.40;6.60;;;19.80;63.00;;;;;;6288976;22;20023;-90
2023/05/15 10:39:39;;;;;;;7.30;4.70;;;19.80;61.60;;;;;;6281802;22;20066;-89
2023/05/15 10:42:07;;;;;;;7.28;5.30;;;19.90;62.00;;;;;;6281495;22;20081;-89
2023/05/15 10:44:37;;;;;;;7.85;5.10;;;20.10;61.70;;;;;;6282765;22;20512;-89
2023/05/15 10:47:08;;;;;;;8.93;6.07;;;20.10;61.60;;;;;;6263241;22;20015;-92
2023/05/15 10:49:56;;;;;;;9.50;6.85;;;20.00;61.60;;;;;;6284436;22;20019;-93
2023/05/15 10:53:22;;;;;;;9.30;6.82;;;19.90;61.40;;;;;;6287112;22;20066;-92
2023/05/15 10:56:31;;;;;;;7.55;4.40;;;19.70;60.80;;;;;;6286553;22;20023;-96
2023/05/15 10:59:40;;;;;;;6.63;4.60;;;19.50;60.70;;;;;;6278344;22;20011;-87
2023/05/15 11:02:28;;;;;;;5.10;3.45;;;19.50;60.30;;;;;;6229249;22;20019;-85
2023/05/15 11:15:04;;;;;;;7.38;4.28;;;19.20;58.50;;;;;;6369464;22;20079;-91
2023/05/15 11:17:32;;;;;;;6.50;4.28;;;19.20;59.10;;;;;;6343190;22;20101;-92
2023/05/15 11:20:12;;;;;;;7.57;4.40;;;19.30;59.70;;;;;;6346682;22;20436;-96
2023/05/15 11:22:58;;;;;;;5.40;3.83;;;19.30;59.10;;;;;;6371187;22;20021;-89
2023/05/15 11:25:35;;;;;;;8.85;4.72;;;19.30;59.30;;;;;;6344994;22;20026;-88
2023/05/15 11:28:04;;;;;;;8.05;4.97;;;19.20;59.60;;;;;;6370109;22;20022;-88
2023/05/15 11:30:38;;;;;;;6.65;4.40;;;19.20;59.80;;;;;;6344187;22;20426;-88
2023/05/15 11:33:12;;;;;;;6.13;3.80;;;19.20;60.10;;;;;;6343008;22;20431;-90
2023/05/15 11:35:45;;;;;;;5.13;3.40;;;19.30;60.30;;;;;;6318249;22;20448;-89
2023/05/15 11:38:25;;;;;;;6.00;3.88;;;19.40;60.50;;;;;;6343743;22;20023;-88
2023/05/15 11:40:59;;;;;;;6.63;4.03;;;19.50;60.00;;;;;;6343808;22;20083;-87
2023/05/15 11:43:29;;;;;;;8.65;5.30;;;19.40;60.00;;;;;;6343298;22;20018;-88
2023/05/15 11:46:11;;;;;;;5.65;3.85;;;19.30;60.20;;;;;;6344317;22;20327;-88
2023/05/15 11:48:44;;;;;;;5.90;3.90;;;19.40;60.50;;;;;;6344147;22;20018;-89
2023/05/15 11:51:18;;;;;;;5.70;3.35;;;19.40;60.70;;;;;;6344242;22;20014;-86
2023/05/15 11:53:45;;;;;;;7.87;5.07;;;19.50;60.80;;;;;;6343242;22;20371;-87
2023/05/15 11:56:24;;;;;;;7.35;5.30;;;19.50;60.80;;;;;;6342649;22;20264;-87
2023/05/15 11:58:54;;;;;;;9.48;6.63;;;19.40;61.00;;;;;;6342985;22;20501;-86
2023/05/15 12:01:21;;;;;;;10.88;7.80;;;19.40;60.90;;;;;;6342579;22;20059;-86
2023/05/15 12:03:50;;;;;;;10.77;7.65;;;19.20;61.40;;;;;;6316286;22;20010;-87
2023/05/15 12:06:17;;;;;;;11.65;7.90;;;19.00;62.00;;;;;;6342665;22;20040;-88
2023/05/15 12:08:55;;;;;;;8.32;5.90;;;19.10;62.40;;;;;;6344608;22;20022;-85
2023/05/15 12:11:23;;;;;;;10.35;6.38;;;19.10;62.50;;;;;;6371387;22;20475;-90
2023/05/15 12:14:32;;;;;;;14.30;10.48;;;19.20;62.60;;;;;;6347361;22;20018;-89
2023/05/15 12:17:22;;;;;;;17.23;10.85;;;19.20;62.90;;;;;;6343569;22;20097;-96
2023/05/15 12:19:54;;;;;;;14.15;9.65;;;18.90;63.50;;;;;;6292458;22;20011;-88
2023/05/15 12:22:30;;;;;;;15.48;10.52;;;18.90;64.00;;;;;;6344142;22;20479;-89
2023/05/15 12:30:07;;;;;;;14.45;9.68;;;18.90;64.30;;;;;;6382166;22;20013;-88
2023/05/15 12:32:38;;;;;;;14.60;9.73;;;18.90;64.50;;;;;;6348690;22;20105;-87
2023/05/15 12:35:05;;;;;;;14.00;9.52;;;18.90;64.70;;;;;;6316873;22;20444;-89
2023/05/15 12:37:35;;;;;;;12.55;9.05;;;19.00;64.80;;;;;;6369111;22;20041;-90
2023/05/15 12:40:09;;;;;;;12.70;8.38;;;19.20;64.70;;;;;;6343725;22;20024;-91
2023/05/15 12:42:43;;;;;;;11.80;8.43;;;19.30;64.60;;;;;;6344138;22;20015;-88
2023/05/15 12:45:16;;;;;;;13.57;8.75;;;19.50;64.50;;;;;;6343289;22;20018;-88
2023/05/15 12:47:48;;;;;;;13.15;9.50;;;19.50;64.40;;;;;;6317196;22;20018;-91
2023/05/15 12:50:22;;;;;;;13.65;9.55;;;19.60;64.50;;;;;;6343123;22;20022;-91
2023/05/15 12:52:54;;;;;;;12.20;8.55;;;19.60;64.40;;;;;;6343111;22;20022;-88
2023/05/15 12:55:45;;;;;;;15.48;11.38;;;19.70;64.40;;;;;;6344325;22;20029;-90
2023/05/15 12:58:17;;;;;;;14.98;10.57;;;19.80;64.00;;;;;;6344757;22;20026;-89
2023/05/15 13:01:08;;;;;;;18.02;12.38;;;19.90;64.00;;;;;;6349590;22;20471;-89
2023/05/15 13:03:36;;;;;;;20.80;14.25;;;19.90;64.00;;;;;;6371256;22;20052;-89
2023/05/15 13:06:08;;;;;;;17.27;11.30;;;19.70;64.00;;;;;;6346347;22;20097;-93
2023/05/15 13:08:48;;;;;;;17.75;11.80;;;19.60;64.50;;;;;;6332477;22;20019;-88
2023/05/15 13:11:17;;;;;;;18.65;12.57;;;19.70;64.40;;;;;;6374443;22;20018;-88
2023/05/15 13:13:46;;;;;;;17.35;12.57;;;19.70;64.30;;;;;;6351610;22;20079;-87
2023/05/15 13:16:45;;;;;;;17.92;11.43;;;19.90;64.20;;;;;;6391332;22;20086;-92
2023/05/15 13:19:54;;;;;;;21.52;14.40;;;20.20;63.60;;;;;;6361760;22;20013;31
2023/05/15 13:23:23;;;;;;;17.98;12.45;;;20.40;62.80;;;;;;6304641;22;19926;-88
2023/05/15 13:25:56;;;;;;;15.15;11.27;;;20.30;63.30;;;;;;6264328;22;20018;-92
2023/05/15 13:28:28;;;;;;;16.77;11.80;;;20.30;63.40;;;;;;6289213;22;20033;-91
2023/05/15 13:31:06;;;;;;;18.27;12.70;;;20.20;63.40;;;;;;6317049;22;20085;-90
2023/05/15 13:33:39;;;;;;;18.08;11.77;;;20.10;63.60;;;;;;6290103;22;20019;-94
2023/05/15 13:36:35;;;;;;;19.52;11.95;;;19.90;64.00;;;;;;6289745;22;20092;-96
2023/05/15 13:48:54;;;;;;;15.05;10.50;;;19.80;64.40;;;;;;6313915;22;20029;-90
2023/05/15 14:00:13;;;;;;;15.10;11.23;;;20.70;63.10;;;;;;6313379;22;20019;-95
2023/05/15 14:02:51;;;;;;;13.30;10.00;;;21.00;61.50;;;;;;6313026;22;20475;-91
2023/05/15 14:05:21;;;;;;;13.55;9.45;;;21.30;61.30;;;;;;6287338;22;20058;-89
2023/05/15 14:12:47;;;;;;;10.00;6.88;;;22.60;58.40;;;;;;6341270;22;20352;-96
2023/05/15 14:19:42;;;;;;;10.45;7.32;;;23.80;57.00;;;;;;6352263;22;20021;-94
2023/05/15 14:22:23;;;;;;;9.00;6.28;;;23.60;56.90;;;;;;6266569;22;20428;-91
2023/05/15 14:24:52;;;;;;;14.35;8.88;;;23.20;57.50;;;;;;6339056;22;20025;-85
2023/05/15 14:27:19;;;;;;;10.88;8.05;;;22.70;57.60;;;;;;6286051;22;20011;-87
2023/05/15 14:29:55;;;;;;;11.23;7.50;;;22.60;58.20;;;;;;6286239;22;20513;-86
2023/05/15 14:32:23;;;;;;;14.23;9.60;;;22.50;58.00;;;;;;6260807;22;20072;-86